sensor_id;sensor_type;location;lat;lon;timestamp;P1;durP1;ratioP1;P2;durP2;ratioP2
323;SDS011;149;51.094;17.002;2023-01-09T00:00:50;56.47;;;32.75;;
323;SDS011;149;51.094;17.002;2023-01-09T00:03:18;52.40;;;29.50;;
323;SDS011;149;51.094;17.002;2023-01-09T00:05:45;42.88;;;28.05;;
323;SDS011;149;51.094;17.002;2023-01-09T00:08:12;45.40;;;27.40;;
323;SDS011;149;51.094;17.002;2023-01-09T00:10:40;51.78;;;29.17;;
323;SDS011;149;51.094;17.002;2023-01-09T00:13:09;50.72;;;30.40;;
323;SDS011;149;51.094;17.002;2023-01-09T00:15:38;40.45;;;23.95;;
323;SDS011;149;51.094;17.002;2023-01-09T00:18:06;43.83;;;24.95;;
323;SDS011;149;51.094;17.002;2023-01-09T00:20:34;45.20;;;24.95;;
323;SDS011;149;51.094;17.002;2023-01-09T00:23:01;36.05;;;23.38;;
323;SDS011;149;51.094;17.002;2023-01-09T00:25:29;49.10;;;27.23;;
323;SDS011;149;51.094;17.002;2023-01-09T00:27:56;65.85;;;35.55;;
323;SDS011;149;51.094;17.002;2023-01-09T00:30:23;59.75;;;35.40;;
323;SDS011;149;51.094;17.002;2023-01-09T00:32:52;47.75;;;26.02;;
323;SDS011;149;51.094;17.002;2023-01-09T00:35:19;58.05;;;30.35;;
323;SDS011;149;51.094;17.002;2023-01-09T00:37:49;53.75;;;29.77;;
323;SDS011;149;51.094;17.002;2023-01-09T00:40:16;41.97;;;27.63;;
323;SDS011;149;51.094;17.002;2023-01-09T00:42:45;45.50;;;28.63;;
323;SDS011;149;51.094;17.002;2023-01-09T00:45:20;44.55;;;27.83;;
323;SDS011;149;51.094;17.002;2023-01-09T00:47:55;44.88;;;27.48;;
323;SDS011;149;51.094;17.002;2023-01-09T00:50:28;49.75;;;30.10;;
323;SDS011;149;51.094;17.002;2023-01-09T00:52:59;43.75;;;29.92;;
323;SDS011;149;51.094;17.002;2023-01-09T00:55:28;45.83;;;31.38;;
323;SDS011;149;51.094;17.002;2023-01-09T00:57:56;51.38;;;31.27;;
323;SDS011;149;51.094;17.002;2023-01-09T01:00:23;62.83;;;31.85;;
323;SDS011;149;51.094;17.002;2023-01-09T01:02:50;41.25;;;27.63;;
323;SDS011;149;51.094;17.002;2023-01-09T01:05:17;48.30;;;29.08;;
323;SDS011;149;51.094;17.002;2023-01-09T01:08:08;49.75;;;34.28;;
323;SDS011;149;51.094;17.002;2023-01-09T01:10:39;43.42;;;28.08;;
323;SDS011;149;51.094;17.002;2023-01-09T01:13:07;45.85;;;29.27;;
323;SDS011;149;51.094;17.002;2023-01-09T01:15:36;52.53;;;30.42;;
323;SDS011;149;51.094;17.002;2023-01-09T01:18:04;51.83;;;31.98;;
323;SDS011;149;51.094;17.002;2023-01-09T01:20:32;59.25;;;34.10;;
323;SDS011;149;51.094;17.002;2023-01-09T01:22:59;42.10;;;29.00;;
323;SDS011;149;51.094;17.002;2023-01-09T01:25:27;54.80;;;33.03;;
323;SDS011;149;51.094;17.002;2023-01-09T01:27:53;43.30;;;27.75;;
323;SDS011;149;51.094;17.002;2023-01-09T01:30:22;46.20;;;26.10;;
323;SDS011;149;51.094;17.002;2023-01-09T01:32:49;69.70;;;33.42;;
323;SDS011;149;51.094;17.002;2023-01-09T01:35:17;51.83;;;30.83;;
323;SDS011;149;51.094;17.002;2023-01-09T01:37:44;52.75;;;29.05;;
323;SDS011;149;51.094;17.002;2023-01-09T01:40:11;61.45;;;32.88;;
323;SDS011;149;51.094;17.002;2023-01-09T01:42:43;45.22;;;26.15;;
323;SDS011;149;51.094;17.002;2023-01-09T01:47:43;47.90;;;27.98;;
323;SDS011;149;51.094;17.002;2023-01-09T01:50:37;38.30;;;27.05;;
323;SDS011;149;51.094;17.002;2023-01-09T01:55:44;40.35;;;25.40;;
323;SDS011;149;51.094;17.002;2023-01-09T01:58:20;43.35;;;25.98;;
323;SDS011;149;51.094;17.002;2023-01-09T02:00:48;37.13;;;25.33;;
323;SDS011;149;51.094;17.002;2023-01-09T02:03:16;42.83;;;28.92;;
323;SDS011;149;51.094;17.002;2023-01-09T02:05:47;47.90;;;27.77;;
323;SDS011;149;51.094;17.002;2023-01-09T02:08:14;49.50;;;29.42;;
323;SDS011;149;51.094;17.002;2023-01-09T02:10:42;44.88;;;29.83;;
323;SDS011;149;51.094;17.002;2023-01-09T02:13:10;47.97;;;28.85;;
323;SDS011;149;51.094;17.002;2023-01-09T02:15:42;49.92;;;31.02;;
323;SDS011;149;51.094;17.002;2023-01-09T02:21:02;49.40;;;30.55;;
323;SDS011;149;51.094;17.002;2023-01-09T02:27:16;49.83;;;28.48;;
323;SDS011;149;51.094;17.002;2023-01-09T02:32:59;45.58;;;28.30;;
323;SDS011;149;51.094;17.002;2023-01-09T02:35:34;44.42;;;28.35;;
323;SDS011;149;51.094;17.002;2023-01-09T02:43:34;44.42;;;29.23;;
323;SDS011;149;51.094;17.002;2023-01-09T02:46:00;43.72;;;26.85;;
323;SDS011;149;51.094;17.002;2023-01-09T02:48:27;41.17;;;27.33;;
323;SDS011;149;51.094;17.002;2023-01-09T02:51:10;43.45;;;28.73;;
323;SDS011;149;51.094;17.002;2023-01-09T02:53:45;45.97;;;29.33;;
323;SDS011;149;51.094;17.002;2023-01-09T03:02:19;47.55;;;30.77;;
323;SDS011;149;51.094;17.002;2023-01-09T03:05:12;53.53;;;32.60;;
323;SDS011;149;51.094;17.002;2023-01-09T03:08:02;44.13;;;31.50;;
323;SDS011;149;51.094;17.002;2023-01-09T03:10:40;51.88;;;33.25;;
323;SDS011;149;51.094;17.002;2023-01-09T03:13:31;46.45;;;31.98;;
323;SDS011;149;51.094;17.002;2023-01-09T03:16:07;64.40;;;36.42;;
323;SDS011;149;51.094;17.002;2023-01-09T03:18:38;44.42;;;29.52;;
323;SDS011;149;51.094;17.002;2023-01-09T03:21:06;43.95;;;30.60;;
323;SDS011;149;51.094;17.002;2023-01-09T03:23:44;46.58;;;30.67;;
323;SDS011;149;51.094;17.002;2023-01-09T03:26:13;43.25;;;27.48;;
323;SDS011;149;51.094;17.002;2023-01-09T03:28:40;46.15;;;29.15;;
323;SDS011;149;51.094;17.002;2023-01-09T03:31:07;40.63;;;24.23;;
323;SDS011;149;51.094;17.002;2023-01-09T03:33:35;38.88;;;24.80;;
323;SDS011;149;51.094;17.002;2023-01-09T03:36:02;37.38;;;25.60;;
323;SDS011;149;51.094;17.002;2023-01-09T03:38:29;37.10;;;23.58;;
323;SDS011;149;51.094;17.002;2023-01-09T03:40:56;37.47;;;24.35;;
323;SDS011;149;51.094;17.002;2023-01-09T03:43:23;37.13;;;24.83;;
323;SDS011;149;51.094;17.002;2023-01-09T03:45:50;40.75;;;25.92;;
323;SDS011;149;51.094;17.002;2023-01-09T03:48:23;35.85;;;22.85;;
323;SDS011;149;51.094;17.002;2023-01-09T03:50:55;45.97;;;27.88;;
323;SDS011;149;51.094;17.002;2023-01-09T03:53:24;37.20;;;24.52;;
323;SDS011;149;51.094;17.002;2023-01-09T03:55:53;40.05;;;23.88;;
323;SDS011;149;51.094;17.002;2023-01-09T03:58:22;35.60;;;22.02;;
323;SDS011;149;51.094;17.002;2023-01-09T04:00:51;41.80;;;25.00;;
323;SDS011;149;51.094;17.002;2023-01-09T04:03:22;35.63;;;21.90;;
323;SDS011;149;51.094;17.002;2023-01-09T04:05:49;38.08;;;24.60;;
323;SDS011;149;51.094;17.002;2023-01-09T04:08:19;30.80;;;21.38;;
323;SDS011;149;51.094;17.002;2023-01-09T04:10:47;32.17;;;20.58;;
323;SDS011;149;51.094;17.002;2023-01-09T04:13:16;40.55;;;23.95;;
323;SDS011;149;51.094;17.002;2023-01-09T04:15:43;35.10;;;23.77;;
323;SDS011;149;51.094;17.002;2023-01-09T04:18:10;38.25;;;23.58;;
323;SDS011;149;51.094;17.002;2023-01-09T04:20:37;26.85;;;21.85;;
323;SDS011;149;51.094;17.002;2023-01-09T04:23:04;35.38;;;23.13;;
323;SDS011;149;51.094;17.002;2023-01-09T04:25:31;43.17;;;22.95;;
323;SDS011;149;51.094;17.002;2023-01-09T04:27:59;54.80;;;29.98;;
323;SDS011;149;51.094;17.002;2023-01-09T04:30:26;34.63;;;22.75;;
323;SDS011;149;51.094;17.002;2023-01-09T04:32:53;36.58;;;23.45;;
323;SDS011;149;51.094;17.002;2023-01-09T04:35:20;34.60;;;21.85;;
323;SDS011;149;51.094;17.002;2023-01-09T04:37:47;30.52;;;21.30;;
323;SDS011;149;51.094;17.002;2023-01-09T04:40:15;33.67;;;22.38;;
323;SDS011;149;51.094;17.002;2023-01-09T04:42:42;29.50;;;21.10;;
323;SDS011;149;51.094;17.002;2023-01-09T04:45:09;33.03;;;21.95;;
323;SDS011;149;51.094;17.002;2023-01-09T04:47:37;35.53;;;22.50;;
323;SDS011;149;51.094;17.002;2023-01-09T04:50:04;29.02;;;21.98;;
323;SDS011;149;51.094;17.002;2023-01-09T04:52:31;33.05;;;20.58;;
323;SDS011;149;51.094;17.002;2023-01-09T04:55:05;36.58;;;22.92;;
323;SDS011;149;51.094;17.002;2023-01-09T04:57:33;33.45;;;23.90;;
323;SDS011;149;51.094;17.002;2023-01-09T05:00:01;34.63;;;22.38;;
323;SDS011;149;51.094;17.002;2023-01-09T05:02:29;35.13;;;23.40;;
323;SDS011;149;51.094;17.002;2023-01-09T05:04:56;32.00;;;21.67;;
323;SDS011;149;51.094;17.002;2023-01-09T05:07:23;40.42;;;24.60;;
323;SDS011;149;51.094;17.002;2023-01-09T05:09:50;37.05;;;25.10;;
323;SDS011;149;51.094;17.002;2023-01-09T05:12:17;38.65;;;24.08;;
323;SDS011;149;51.094;17.002;2023-01-09T05:14:44;38.35;;;25.83;;
323;SDS011;149;51.094;17.002;2023-01-09T05:17:11;36.00;;;23.17;;
323;SDS011;149;51.094;17.002;2023-01-09T05:19:38;40.63;;;27.27;;
323;SDS011;149;51.094;17.002;2023-01-09T05:22:05;34.60;;;24.25;;
323;SDS011;149;51.094;17.002;2023-01-09T05:24:33;39.20;;;24.25;;
323;SDS011;149;51.094;17.002;2023-01-09T05:27:00;36.33;;;25.33;;
323;SDS011;149;51.094;17.002;2023-01-09T05:29:28;46.20;;;28.27;;
323;SDS011;149;51.094;17.002;2023-01-09T05:31:56;38.40;;;26.60;;
323;SDS011;149;51.094;17.002;2023-01-09T05:34:23;39.80;;;25.63;;
323;SDS011;149;51.094;17.002;2023-01-09T05:36:52;40.67;;;26.88;;
323;SDS011;149;51.094;17.002;2023-01-09T05:39:22;38.83;;;25.63;;
323;SDS011;149;51.094;17.002;2023-01-09T05:41:51;43.78;;;29.10;;
323;SDS011;149;51.094;17.002;2023-01-09T05:44:18;40.95;;;28.38;;
323;SDS011;149;51.094;17.002;2023-01-09T05:46:47;37.58;;;25.48;;
323;SDS011;149;51.094;17.002;2023-01-09T05:49:17;45.72;;;27.25;;
323;SDS011;149;51.094;17.002;2023-01-09T05:52:02;39.60;;;27.23;;
323;SDS011;149;51.094;17.002;2023-01-09T05:54:30;42.65;;;27.90;;
323;SDS011;149;51.094;17.002;2023-01-09T05:57:00;46.00;;;25.60;;
323;SDS011;149;51.094;17.002;2023-01-09T05:59:30;34.08;;;23.30;;
323;SDS011;149;51.094;17.002;2023-01-09T06:01:59;39.70;;;25.65;;
323;SDS011;149;51.094;17.002;2023-01-09T06:04:26;41.25;;;28.25;;
323;SDS011;149;51.094;17.002;2023-01-09T06:06:55;47.58;;;28.52;;
323;SDS011;149;51.094;17.002;2023-01-09T06:09:22;38.58;;;25.58;;
323;SDS011;149;51.094;17.002;2023-01-09T06:11:50;42.33;;;26.23;;
323;SDS011;149;51.094;17.002;2023-01-09T06:14:17;43.03;;;27.30;;
323;SDS011;149;51.094;17.002;2023-01-09T06:16:43;39.75;;;26.92;;
323;SDS011;149;51.094;17.002;2023-01-09T06:19:10;37.80;;;27.33;;
323;SDS011;149;51.094;17.002;2023-01-09T06:21:37;36.88;;;24.92;;
323;SDS011;149;51.094;17.002;2023-01-09T06:24:06;37.60;;;25.17;;
323;SDS011;149;51.094;17.002;2023-01-09T06:26:33;40.90;;;24.70;;
323;SDS011;149;51.094;17.002;2023-01-09T06:29:00;32.42;;;23.70;;
323;SDS011;149;51.094;17.002;2023-01-09T06:31:27;31.98;;;22.20;;
323;SDS011;149;51.094;17.002;2023-01-09T06:33:54;37.30;;;23.67;;
323;SDS011;149;51.094;17.002;2023-01-09T06:36:21;36.83;;;23.50;;
323;SDS011;149;51.094;17.002;2023-01-09T06:38:48;35.80;;;24.80;;
323;SDS011;149;51.094;17.002;2023-01-09T06:41:15;32.83;;;21.90;;
323;SDS011;149;51.094;17.002;2023-01-09T06:43:42;33.63;;;21.55;;
323;SDS011;149;51.094;17.002;2023-01-09T06:46:09;35.60;;;25.10;;
323;SDS011;149;51.094;17.002;2023-01-09T06:48:36;34.55;;;23.45;;
323;SDS011;149;51.094;17.002;2023-01-09T06:51:03;36.30;;;25.17;;
323;SDS011;149;51.094;17.002;2023-01-09T06:53:30;36.20;;;21.25;;
323;SDS011;149;51.094;17.002;2023-01-09T06:55:56;32.33;;;21.13;;
323;SDS011;149;51.094;17.002;2023-01-09T06:58:24;27.98;;;20.58;;
323;SDS011;149;51.094;17.002;2023-01-09T07:00:51;35.53;;;22.67;;
323;SDS011;149;51.094;17.002;2023-01-09T07:03:18;31.60;;;21.42;;
323;SDS011;149;51.094;17.002;2023-01-09T07:05:47;34.63;;;22.55;;
323;SDS011;149;51.094;17.002;2023-01-09T07:08:14;33.83;;;24.40;;
323;SDS011;149;51.094;17.002;2023-01-09T07:10:42;36.45;;;22.33;;
323;SDS011;149;51.094;17.002;2023-01-09T07:13:09;48.60;;;23.30;;
323;SDS011;149;51.094;17.002;2023-01-09T07:15:37;31.30;;;21.65;;
323;SDS011;149;51.094;17.002;2023-01-09T07:18:04;32.67;;;21.42;;
323;SDS011;149;51.094;17.002;2023-01-09T07:20:31;26.67;;;19.45;;
323;SDS011;149;51.094;17.002;2023-01-09T07:22:58;33.50;;;22.38;;
323;SDS011;149;51.094;17.002;2023-01-09T07:25:25;35.47;;;21.52;;
323;SDS011;149;51.094;17.002;2023-01-09T07:27:52;41.35;;;23.08;;
323;SDS011;149;51.094;17.002;2023-01-09T07:30:20;31.60;;;21.83;;
323;SDS011;149;51.094;17.002;2023-01-09T07:32:46;35.00;;;20.52;;
323;SDS011;149;51.094;17.002;2023-01-09T07:35:13;30.52;;;19.88;;
323;SDS011;149;51.094;17.002;2023-01-09T07:37:40;38.58;;;24.05;;
323;SDS011;149;51.094;17.002;2023-01-09T07:40:07;34.35;;;21.10;;
323;SDS011;149;51.094;17.002;2023-01-09T07:42:35;34.80;;;22.05;;
323;SDS011;149;51.094;17.002;2023-01-09T07:45:02;33.72;;;23.08;;
323;SDS011;149;51.094;17.002;2023-01-09T07:47:29;38.45;;;23.38;;
323;SDS011;149;51.094;17.002;2023-01-09T07:49:58;36.10;;;21.70;;
323;SDS011;149;51.094;17.002;2023-01-09T07:52:27;36.15;;;21.60;;
323;SDS011;149;51.094;17.002;2023-01-09T07:54:58;36.45;;;24.45;;
323;SDS011;149;51.094;17.002;2023-01-09T08:00:11;34.60;;;25.33;;
323;SDS011;149;51.094;17.002;2023-01-09T08:02:39;34.58;;;24.80;;
323;SDS011;149;51.094;17.002;2023-01-09T08:05:07;38.70;;;22.13;;
323;SDS011;149;51.094;17.002;2023-01-09T08:07:39;31.58;;;24.20;;
323;SDS011;149;51.094;17.002;2023-01-09T08:10:06;32.53;;;21.98;;
323;SDS011;149;51.094;17.002;2023-01-09T08:12:33;35.38;;;23.33;;
323;SDS011;149;51.094;17.002;2023-01-09T08:15:00;39.70;;;22.77;;
323;SDS011;149;51.094;17.002;2023-01-09T08:17:28;38.25;;;24.60;;
323;SDS011;149;51.094;17.002;2023-01-09T08:19:54;35.75;;;23.50;;
323;SDS011;149;51.094;17.002;2023-01-09T08:22:22;35.35;;;24.90;;
323;SDS011;149;51.094;17.002;2023-01-09T08:24:49;33.15;;;21.80;;
323;SDS011;149;51.094;17.002;2023-01-09T08:27:16;42.80;;;24.38;;
323;SDS011;149;51.094;17.002;2023-01-09T08:29:43;47.70;;;28.75;;
323;SDS011;149;51.094;17.002;2023-01-09T08:32:10;45.33;;;29.30;;
323;SDS011;149;51.094;17.002;2023-01-09T08:34:36;50.28;;;30.08;;
323;SDS011;149;51.094;17.002;2023-01-09T08:37:03;48.58;;;30.42;;
323;SDS011;149;51.094;17.002;2023-01-09T08:39:32;43.08;;;26.90;;
323;SDS011;149;51.094;17.002;2023-01-09T08:42:01;38.90;;;24.80;;
323;SDS011;149;51.094;17.002;2023-01-09T08:44:47;42.92;;;25.80;;
323;SDS011;149;51.094;17.002;2023-01-09T08:47:33;36.58;;;24.42;;
323;SDS011;149;51.094;17.002;2023-01-09T08:50:00;40.85;;;25.15;;
323;SDS011;149;51.094;17.002;2023-01-09T08:52:29;35.38;;;23.60;;
323;SDS011;149;51.094;17.002;2023-01-09T08:54:56;41.97;;;26.08;;
323;SDS011;149;51.094;17.002;2023-01-09T08:57:23;36.35;;;23.67;;
323;SDS011;149;51.094;17.002;2023-01-09T08:59:50;37.35;;;22.45;;
323;SDS011;149;51.094;17.002;2023-01-09T09:02:18;45.30;;;24.70;;
323;SDS011;149;51.094;17.002;2023-01-09T09:04:45;41.25;;;21.85;;
323;SDS011;149;51.094;17.002;2023-01-09T09:07:13;35.72;;;23.52;;
323;SDS011;149;51.094;17.002;2023-01-09T09:09:40;37.90;;;24.58;;
323;SDS011;149;51.094;17.002;2023-01-09T09:12:07;29.40;;;21.05;;
323;SDS011;149;51.094;17.002;2023-01-09T09:14:34;35.50;;;21.23;;
323;SDS011;149;51.094;17.002;2023-01-09T09:17:20;27.73;;;20.27;;
323;SDS011;149;51.094;17.002;2023-01-09T09:19:47;26.23;;;20.17;;
323;SDS011;149;51.094;17.002;2023-01-09T09:22:14;33.17;;;20.75;;
323;SDS011;149;51.094;17.002;2023-01-09T09:24:41;28.27;;;19.10;;
323;SDS011;149;51.094;17.002;2023-01-09T09:27:08;30.65;;;18.38;;
323;SDS011;149;51.094;17.002;2023-01-09T09:29:35;31.65;;;18.85;;
323;SDS011;149;51.094;17.002;2023-01-09T09:32:02;30.00;;;17.90;;
323;SDS011;149;51.094;17.002;2023-01-09T09:34:29;26.38;;;17.55;;
323;SDS011;149;51.094;17.002;2023-01-09T09:36:56;31.10;;;19.75;;
323;SDS011;149;51.094;17.002;2023-01-09T09:39:26;32.17;;;19.35;;
323;SDS011;149;51.094;17.002;2023-01-09T09:50:24;29.77;;;19.00;;
323;SDS011;149;51.094;17.002;2023-01-09T09:55:52;25.55;;;18.80;;
323;SDS011;149;51.094;17.002;2023-01-09T09:58:35;27.98;;;19.33;;
323;SDS011;149;51.094;17.002;2023-01-09T10:01:05;29.77;;;18.83;;
323;SDS011;149;51.094;17.002;2023-01-09T10:03:38;30.40;;;20.00;;
323;SDS011;149;51.094;17.002;2023-01-09T10:09:01;25.63;;;16.65;;
323;SDS011;149;51.094;17.002;2023-01-09T10:11:52;28.42;;;19.17;;
323;SDS011;149;51.094;17.002;2023-01-09T10:14:39;28.02;;;17.75;;
323;SDS011;149;51.094;17.002;2023-01-09T10:20:08;26.75;;;18.73;;
323;SDS011;149;51.094;17.002;2023-01-09T10:25:43;36.17;;;16.23;;
323;SDS011;149;51.094;17.002;2023-01-09T10:28:43;30.58;;;18.48;;
323;SDS011;149;51.094;17.002;2023-01-09T10:34:11;26.70;;;17.55;;
323;SDS011;149;51.094;17.002;2023-01-09T10:36:43;35.88;;;18.88;;
323;SDS011;149;51.094;17.002;2023-01-09T10:39:20;23.42;;;17.75;;
323;SDS011;149;51.094;17.002;2023-01-09T10:42:15;26.15;;;16.00;;
323;SDS011;149;51.094;17.002;2023-01-09T10:44:56;30.42;;;17.38;;
323;SDS011;149;51.094;17.002;2023-01-09T10:47:36;29.83;;;19.08;;
323;SDS011;149;51.094;17.002;2023-01-09T10:50:14;22.23;;;15.93;;
323;SDS011;149;51.094;17.002;2023-01-09T10:52:48;31.98;;;17.85;;
323;SDS011;149;51.094;17.002;2023-01-09T10:55:18;32.38;;;20.17;;
323;SDS011;149;51.094;17.002;2023-01-09T10:58:02;42.22;;;23.15;;
323;SDS011;149;51.094;17.002;2023-01-09T11:00:36;30.13;;;20.83;;
323;SDS011;149;51.094;17.002;2023-01-09T11:03:05;33.05;;;20.35;;
323;SDS011;149;51.094;17.002;2023-01-09T11:05:36;34.88;;;21.35;;
323;SDS011;149;51.094;17.002;2023-01-09T11:11:00;33.28;;;19.33;;
323;SDS011;149;51.094;17.002;2023-01-09T11:13:31;30.52;;;17.92;;
323;SDS011;149;51.094;17.002;2023-01-09T11:16:21;34.05;;;18.10;;
323;SDS011;149;51.094;17.002;2023-01-09T11:18:54;24.83;;;17.15;;
323;SDS011;149;51.094;17.002;2023-01-09T11:26:47;31.17;;;16.27;;
323;SDS011;149;51.094;17.002;2023-01-09T11:29:17;26.25;;;19.02;;
323;SDS011;149;51.094;17.002;2023-01-09T11:31:56;22.88;;;16.58;;
323;SDS011;149;51.094;17.002;2023-01-09T11:34:29;24.15;;;17.80;;
323;SDS011;149;51.094;17.002;2023-01-09T11:37:08;27.17;;;18.48;;
323;SDS011;149;51.094;17.002;2023-01-09T11:39:37;22.70;;;15.93;;
323;SDS011;149;51.094;17.002;2023-01-09T11:42:08;28.75;;;17.33;;
323;SDS011;149;51.094;17.002;2023-01-09T11:47:40;24.60;;;17.75;;
323;SDS011;149;51.094;17.002;2023-01-09T11:50:09;20.02;;;16.13;;
323;SDS011;149;51.094;17.002;2023-01-09T11:52:42;27.95;;;17.30;;
323;SDS011;149;51.094;17.002;2023-01-09T11:55:13;23.92;;;15.23;;
323;SDS011;149;51.094;17.002;2023-01-09T11:57:44;17.77;;;13.35;;
323;SDS011;149;51.094;17.002;2023-01-09T12:00:29;10.27;;;8.68;;
323;SDS011;149;51.094;17.002;2023-01-09T12:03:09;10.55;;;7.93;;
323;SDS011;149;51.094;17.002;2023-01-09T12:09:05;9.52;;;7.82;;
323;SDS011;149;51.094;17.002;2023-01-09T12:11:46;5.80;;;5.20;;
323;SDS011;149;51.094;17.002;2023-01-09T12:14:32;10.10;;;7.47;;
323;SDS011;149;51.094;17.002;2023-01-09T12:17:29;9.43;;;7.50;;
323;SDS011;149;51.094;17.002;2023-01-09T12:25:52;8.15;;;5.68;;
323;SDS011;149;51.094;17.002;2023-01-09T12:37:08;8.43;;;5.80;;
323;SDS011;149;51.094;17.002;2023-01-09T12:39:59;7.60;;;5.75;;
323;SDS011;149;51.094;17.002;2023-01-09T12:48:22;7.75;;;5.75;;
323;SDS011;149;51.094;17.002;2023-01-09T12:53:30;7.55;;;6.13;;
323;SDS011;149;51.094;17.002;2023-01-09T12:56:03;7.03;;;5.72;;
323;SDS011;149;51.094;17.002;2023-01-09T12:58:38;7.85;;;5.80;;
323;SDS011;149;51.094;17.002;2023-01-09T13:01:12;11.85;;;5.60;;
323;SDS011;149;51.094;17.002;2023-01-09T13:03:46;6.43;;;5.70;;
323;SDS011;149;51.094;17.002;2023-01-09T13:06:15;6.63;;;5.60;;
323;SDS011;149;51.094;17.002;2023-01-09T13:08:46;7.45;;;4.97;;
323;SDS011;149;51.094;17.002;2023-01-09T13:16:48;6.13;;;5.35;;
323;SDS011;149;51.094;17.002;2023-01-09T13:19:29;7.32;;;5.70;;
323;SDS011;149;51.094;17.002;2023-01-09T13:22:09;6.10;;;4.80;;
323;SDS011;149;51.094;17.002;2023-01-09T13:25:25;8.85;;;5.53;;
323;SDS011;149;51.094;17.002;2023-01-09T13:27:30;5.93;;;5.20;;
323;SDS011;149;51.094;17.002;2023-01-09T13:30:15;9.30;;;7.55;;
323;SDS011;149;51.094;17.002;2023-01-09T13:35:33;9.50;;;6.22;;
323;SDS011;149;51.094;17.002;2023-01-09T13:38:15;10.63;;;6.38;;
323;SDS011;149;51.094;17.002;2023-01-09T13:40:45;11.35;;;6.13;;
323;SDS011;149;51.094;17.002;2023-01-09T13:43:11;9.52;;;6.82;;
323;SDS011;149;51.094;17.002;2023-01-09T13:45:42;7.47;;;6.63;;
323;SDS011;149;51.094;17.002;2023-01-09T13:48:16;9.73;;;6.22;;
323;SDS011;149;51.094;17.002;2023-01-09T13:50:49;9.52;;;7.65;;
323;SDS011;149;51.094;17.002;2023-01-09T13:58:29;7.70;;;5.45;;
323;SDS011;149;51.094;17.002;2023-01-09T14:01:01;7.63;;;5.75;;
323;SDS011;149;51.094;17.002;2023-01-09T14:04:25;8.18;;;5.70;;
323;SDS011;149;51.094;17.002;2023-01-09T14:09:48;8.35;;;6.28;;
323;SDS011;149;51.094;17.002;2023-01-09T14:12:18;7.03;;;5.93;;
323;SDS011;149;51.094;17.002;2023-01-09T14:14:47;8.93;;;6.68;;
323;SDS011;149;51.094;17.002;2023-01-09T14:17:21;9.35;;;6.43;;
323;SDS011;149;51.094;17.002;2023-01-09T14:19:56;10.23;;;5.25;;
323;SDS011;149;51.094;17.002;2023-01-09T14:22:35;8.65;;;6.88;;
323;SDS011;149;51.094;17.002;2023-01-09T14:25:22;8.02;;;7.20;;
323;SDS011;149;51.094;17.002;2023-01-09T14:33:37;8.07;;;6.50;;
323;SDS011;149;51.094;17.002;2023-01-09T14:36:00;20.30;;;7.78;;
323;SDS011;149;51.094;17.002;2023-01-09T14:38:45;8.45;;;6.90;;
323;SDS011;149;51.094;17.002;2023-01-09T14:43:56;12.57;;;7.53;;
323;SDS011;149;51.094;17.002;2023-01-09T14:46:33;9.98;;;7.53;;
323;SDS011;149;51.094;17.002;2023-01-09T14:49:23;9.88;;;7.18;;
323;SDS011;149;51.094;17.002;2023-01-09T14:52:23;9.05;;;7.20;;
323;SDS011;149;51.094;17.002;2023-01-09T14:54:58;10.52;;;6.88;;
323;SDS011;149;51.094;17.002;2023-01-09T15:00:05;9.38;;;6.95;;
323;SDS011;149;51.094;17.002;2023-01-09T15:02:44;8.80;;;6.82;;
323;SDS011;149;51.094;17.002;2023-01-09T15:05:13;12.27;;;6.85;;
323;SDS011;149;51.094;17.002;2023-01-09T15:08:00;7.97;;;6.35;;
323;SDS011;149;51.094;17.002;2023-01-09T15:10:30;8.60;;;6.63;;
323;SDS011;149;51.094;17.002;2023-01-09T15:13:02;7.53;;;5.93;;
323;SDS011;149;51.094;17.002;2023-01-09T15:15:32;7.03;;;5.57;;
323;SDS011;149;51.094;17.002;2023-01-09T15:18:02;8.38;;;5.68;;
323;SDS011;149;51.094;17.002;2023-01-09T15:20:32;5.50;;;5.00;;
323;SDS011;149;51.094;17.002;2023-01-09T15:22:59;6.30;;;5.70;;
323;SDS011;149;51.094;17.002;2023-01-09T15:25:33;6.75;;;4.85;;
323;SDS011;149;51.094;17.002;2023-01-09T15:30:57;4.70;;;4.20;;
323;SDS011;149;51.094;17.002;2023-01-09T15:33:28;7.30;;;5.45;;
323;SDS011;149;51.094;17.002;2023-01-09T15:35:56;7.03;;;5.50;;
323;SDS011;149;51.094;17.002;2023-01-09T15:38:28;6.60;;;5.35;;
323;SDS011;149;51.094;17.002;2023-01-09T15:40:59;6.05;;;5.43;;
323;SDS011;149;51.094;17.002;2023-01-09T15:43:29;6.85;;;5.25;;
323;SDS011;149;51.094;17.002;2023-01-09T15:45:57;8.02;;;5.43;;
323;SDS011;149;51.094;17.002;2023-01-09T15:48:30;7.45;;;6.35;;
323;SDS011;149;51.094;17.002;2023-01-09T15:53:30;7.40;;;5.63;;
323;SDS011;149;51.094;17.002;2023-01-09T15:56:05;10.93;;;6.05;;
323;SDS011;149;51.094;17.002;2023-01-09T15:58:34;11.25;;;8.00;;
323;SDS011;149;51.094;17.002;2023-01-09T16:01:06;7.55;;;6.32;;
323;SDS011;149;51.094;17.002;2023-01-09T16:04:07;11.45;;;5.95;;
323;SDS011;149;51.094;17.002;2023-01-09T16:06:43;8.50;;;6.00;;
323;SDS011;149;51.094;17.002;2023-01-09T16:09:17;7.03;;;5.68;;
323;SDS011;149;51.094;17.002;2023-01-09T16:11:52;8.90;;;5.90;;
323;SDS011;149;51.094;17.002;2023-01-09T16:14:31;8.35;;;5.10;;
323;SDS011;149;51.094;17.002;2023-01-09T16:17:05;11.88;;;5.93;;
323;SDS011;149;51.094;17.002;2023-01-09T16:22:28;8.95;;;6.15;;
323;SDS011;149;51.094;17.002;2023-01-09T16:24:58;9.10;;;7.00;;
323;SDS011;149;51.094;17.002;2023-01-09T16:27:27;8.75;;;6.07;;
323;SDS011;149;51.094;17.002;2023-01-09T16:29:57;10.73;;;7.20;;
323;SDS011;149;51.094;17.002;2023-01-09T16:32:30;7.72;;;6.13;;
323;SDS011;149;51.094;17.002;2023-01-09T16:35:03;6.82;;;6.13;;
323;SDS011;149;51.094;17.002;2023-01-09T16:37:33;12.55;;;7.15;;
323;SDS011;149;51.094;17.002;2023-01-09T16:42:44;8.50;;;7.60;;
323;SDS011;149;51.094;17.002;2023-01-09T16:45:29;12.15;;;7.95;;
323;SDS011;149;51.094;17.002;2023-01-09T16:48:10;11.20;;;7.88;;
323;SDS011;149;51.094;17.002;2023-01-09T16:50:45;10.68;;;6.97;;
323;SDS011;149;51.094;17.002;2023-01-09T16:53:17;16.50;;;11.52;;
323;SDS011;149;51.094;17.002;2023-01-09T16:55:47;15.10;;;9.45;;
323;SDS011;149;51.094;17.002;2023-01-09T16:58:15;12.82;;;8.90;;
323;SDS011;149;51.094;17.002;2023-01-09T17:00:48;10.48;;;8.75;;
323;SDS011;149;51.094;17.002;2023-01-09T17:03:15;18.35;;;10.15;;
323;SDS011;149;51.094;17.002;2023-01-09T17:05:42;18.10;;;9.40;;
323;SDS011;149;51.094;17.002;2023-01-09T17:08:19;17.33;;;9.38;;
323;SDS011;149;51.094;17.002;2023-01-09T17:10:52;17.23;;;10.25;;
323;SDS011;149;51.094;17.002;2023-01-09T17:13:21;14.25;;;9.95;;
323;SDS011;149;51.094;17.002;2023-01-09T17:15:48;18.85;;;10.52;;
323;SDS011;149;51.094;17.002;2023-01-09T17:18:18;10.20;;;9.05;;
323;SDS011;149;51.094;17.002;2023-01-09T17:20:48;15.18;;;9.88;;
323;SDS011;149;51.094;17.002;2023-01-09T17:23:17;14.35;;;9.77;;
323;SDS011;149;51.094;17.002;2023-01-09T17:25:48;13.93;;;8.07;;
323;SDS011;149;51.094;17.002;2023-01-09T17:28:37;16.77;;;9.75;;
323;SDS011;149;51.094;17.002;2023-01-09T17:31:09;11.77;;;9.10;;
323;SDS011;149;51.094;17.002;2023-01-09T17:33:38;15.13;;;9.20;;
323;SDS011;149;51.094;17.002;2023-01-09T17:36:49;13.38;;;10.25;;
323;SDS011;149;51.094;17.002;2023-01-09T17:39:00;13.48;;;9.30;;
323;SDS011;149;51.094;17.002;2023-01-09T17:41:27;13.30;;;8.35;;